Time;durP1;ratioP1;P1;durP2;ratioP2;P2;SDS_P1;SDS_P2;PMS_P1;PMS_P2;Temp;Humidity;BMP_temperature;BMP_pressure;BME280_temperature;BME280_humidity;BME280_pressure;Samples;Min_cycle;Max_cycle;Signal;HPM_P1;HPM_P2
2023/07/01 00:00:10;;;;;;;5.93;5.43;;;;;;;;;;4705787;30;20068;-76
2023/07/01 00:02:48;;;;;;;6.03;5.53;;;;;;;;;;4705309;30;20087;-76
2023/07/01 00:05:16;;;;;;;5.53;5.07;;;;;;;;;;4704471;30;20069;-76
2023/07/01 00:07:44;;;;;;;5.68;5.28;;;;;;;;;;4707523;30;20512;-76
2023/07/01 00:10:11;;;;;;;6.28;5.78;;;;;;;;;;4704764;30;20045;-76
2023/07/01 00:12:39;;;;;;;5.90;5.40;;;;;;;;;;4705836;30;20146;-76
2023/07/01 00:15:06;;;;;;;6.53;5.95;;;;;;;;;;4704700;30;20053;-76
2023/07/01 00:17:34;;;;;;;6.55;6.05;;;;;;;;;;4709689;30;20089;-76
2023/07/01 00:20:02;;;;;;;6.13;5.57;;;;;;;;;;4711959;30;20053;-76
2023/07/01 00:22:30;;;;;;;6.38;5.88;;;;;;;;;;4712548;30;20068;-77
2023/07/01 00:24:58;;;;;;;6.07;5.57;;;;;;;;;;4705668;30;20121;-77
2023/07/01 00:27:25;;;;;;;6.32;5.82;;;;;;;;;;4707040;30;20505;-75
2023/07/01 00:29:53;;;;;;;5.80;5.30;;;;;;;;;;4709325;30;20049;-75
2023/07/01 00:32:20;;;;;;;6.53;5.93;;;;;;;;;;4705693;30;20049;-75
2023/07/01 00:34:48;;;;;;;6.78;6.07;;;;;;;;;;4709890;30;20668;-75
2023/07/01 00:37:15;;;;;;;6.47;5.50;;;;;;;;;;4708721;30;20102;-75
2023/07/01 00:39:42;;;;;;;6.53;5.53;;;;;;;;;;4709709;30;20119;-75
2023/07/01 00:42:11;;;;;;;6.30;5.80;;;;;;;;;;4706343;30;20060;-76
2023/07/01 00:44:40;;;;;;;6.35;5.75;;;;;;;;;;4707312;30;20475;-75
2023/07/01 00:47:08;;;;;;;6.10;5.60;;;;;;;;;;4705151;30;20443;-76
2023/07/01 00:49:36;;;;;;;6.18;5.60;;;;;;;;;;4704448;30;20433;-76
2023/07/01 00:52:03;;;;;;;6.00;5.50;;;;;;;;;;4707715;30;20057;-76
2023/07/01 00:54:31;;;;;;;6.35;5.75;;;;;;;;;;4716539;30;20053;-75
2023/07/01 00:57:01;;;;;;;6.22;5.70;;;;;;;;;;4703986;30;20079;-76
2023/07/01 00:59:29;;;;;;;6.38;5.78;;;;;;;;;;4709299;30;20139;-76
2023/07/01 01:01:58;;;;;;;5.93;5.43;;;;;;;;;;4706495;30;20053;-76
2023/07/01 01:04:35;;;;;;;6.00;5.50;;;;;;;;;;4720203;30;20174;-76
2023/07/01 01:07:13;;;;;;;6.20;5.63;;;;;;;;;;4703678;30;20053;-76
2023/07/01 01:09:49;;;;;;;6.90;6.13;;;;;;;;;;4704641;30;20099;-76
2023/07/01 01:12:18;;;;;;;6.70;6.10;;;;;;;;;;4719428;30;20528;-76
2023/07/01 01:14:46;;;;;;;7.72;7.03;;;;;;;;;;4704598;30;20057;-76
2023/07/01 01:17:14;;;;;;;6.72;6.13;;;;;;;;;;4709723;30;20268;-76
2023/07/01 01:19:47;;;;;;;6.60;6.00;;;;;;;;;;4708696;30;20059;-76
2023/07/01 01:22:14;;;;;;;6.25;5.65;;;;;;;;;;4704227;30;20045;-76
2023/07/01 01:24:43;;;;;;;6.38;5.78;;;;;;;;;;4708865;30;20052;-76
2023/07/01 01:27:12;;;;;;;5.88;5.38;;;;;;;;;;4707624;30;20164;-76
2023/07/01 01:29:40;;;;;;;7.22;6.35;;;;;;;;;;4709048;30;20160;-76
2023/07/01 01:32:08;;;;;;;6.32;5.72;;;;;;;;;;4702731;30;20057;-76
2023/07/01 01:34:37;;;;;;;6.40;5.80;;;;;;;;;;4707686;30;20064;-76
2023/07/01 01:37:07;;;;;;;6.60;6.00;;;;;;;;;;4708837;30;20287;-77
2023/07/01 01:39:40;;;;;;;5.80;5.30;;;;;;;;;;4702904;30;20428;-77
2023/07/01 01:42:09;;;;;;;7.57;6.85;;;;;;;;;;4703769;30;20060;-76
2023/07/01 01:44:44;;;;;;;7.10;6.50;;;;;;;;;;4707332;30;20505;-77
2023/07/01 01:47:16;;;;;;;7.70;6.90;;;;;;;;;;4706448;30;20064;-77
2023/07/01 01:49:43;;;;;;;;;;;;;;;;;;4720591;30;20053;-77
2023/07/01 01:52:15;;;;;;;6.78;6.18;;;;;;;;;;4714794;30;19969;-77
2023/07/01 01:54:45;;;;;;;6.80;6.25;;;;;;;;;;4710127;30;20127;-77
2023/07/01 01:57:13;;;;;;;6.50;5.90;;;;;;;;;;4714914;30;20058;-77
2023/07/01 01:59:41;;;;;;;6.78;6.18;;;;;;;;;;4709894;30;20099;-77
2023/07/01 02:02:09;;;;;;;6.43;5.93;;;;;;;;;;4704287;30;20124;-77
2023/07/01 02:04:37;;;;;;;6.40;5.85;;;;;;;;;;4702506;30;20073;-77
2023/07/01 02:07:05;;;;;;;6.55;6.05;;;;;;;;;;4708804;30;20307;-77
2023/07/01 02:09:32;;;;;;;7.00;6.40;;;;;;;;;;4709546;30;20124;-77
2023/07/01 02:11:59;;;;;;;6.68;6.07;;;;;;;;;;4707124;30;20045;-77
2023/07/01 02:14:27;;;;;;;6.53;5.95;;;;;;;;;;4702625;30;20092;-75
2023/07/01 02:16:55;;;;;;;6.57;5.97;;;;;;;;;;4703795;30;20057;-75
2023/07/01 02:19:22;;;;;;;6.50;5.90;;;;;;;;;;4704827;30;20284;-75
2023/07/01 02:21:50;;;;;;;6.80;6.20;;;;;;;;;;4709820;30;20451;-75
2023/07/01 02:24:17;;;;;;;6.75;6.05;;;;;;;;;;4731597;24;20062;-87
2023/07/01 02:26:45;;;;;;;7.78;7.05;;;;;;;;;;4727484;30;20053;-86
2023/07/01 02:29:12;;;;;;;7.13;6.50;;;;;;;;;;4734719;30;20524;-87
2023/07/01 02:31:40;;;;;;;7.53;6.82;;;;;;;;;;4729591;30;20114;-88
2023/07/01 02:34:07;;;;;;;7.68;7.07;;;;;;;;;;4725673;30;20057;-87
2023/07/01 02:36:35;;;;;;;7.93;7.22;;;;;;;;;;4710712;30;20115;-87
2023/07/01 02:39:02;;;;;;;7.65;6.95;;;;;;;;;;4710047;30;20056;-87
2023/07/01 02:41:30;;;;;;;6.85;6.25;;;;;;;;;;4710199;30;20477;-86
2023/07/01 02:43:57;;;;;;;7.15;6.45;;;;;;;;;;4709900;30;20424;-86
2023/07/01 02:46:27;;;;;;;7.20;6.60;;;;;;;;;;4707076;30;20065;-87
2023/07/01 02:48:54;;;;;;;6.88;6.28;;;;;;;;;;4716270;30;20056;-87
2023/07/01 02:51:22;;;;;;;6.85;6.22;;;;;;;;;;4721479;30;20099;-87
2023/07/01 02:53:49;;;;;;;6.45;5.95;;;;;;;;;;4707204;30;20592;-87
2023/07/01 02:56:17;;;;;;;6.47;5.88;;;;;;;;;;4717523;30;20061;-86
2023/07/01 02:58:44;;;;;;;7.40;6.70;;;;;;;;;;4719693;30;20068;-86
2023/07/01 03:01:13;;;;;;;8.18;7.43;;;;;;;;;;4711889;30;20064;-86
2023/07/01 03:03:41;;;;;;;9.40;8.40;;;;;;;;;;4714778;30;20409;-87
2023/07/01 03:06:09;;;;;;;14.50;12.80;;;;;;;;;;4710886;30;20053;-86
2023/07/01 03:08:37;;;;;;;12.43;11.13;;;;;;;;;;4699643;30;20053;-87
2023/07/01 03:11:04;;;;;;;16.27;13.95;;;;;;;;;;4708909;30;20056;-87
2023/07/01 03:13:32;;;;;;;15.00;13.40;;;;;;;;;;4707808;30;20520;-87
2023/07/01 03:16:00;;;;;;;13.20;11.07;;;;;;;;;;4718587;30;20061;-87
2023/07/01 03:18:28;;;;;;;11.32;10.13;;;;;;;;;;4713535;30;20069;-88
2023/07/01 03:21:00;;;;;;;9.70;8.73;;;;;;;;;;4713363;30;20497;-86
2023/07/01 03:23:29;;;;;;;12.05;9.10;;;;;;;;;;4731981;30;20057;-87
2023/07/01 03:25:56;;;;;;;9.80;8.90;;;;;;;;;;4740844;30;20078;-87
2023/07/01 03:28:24;;;;;;;11.57;10.15;;;;;;;;;;4716513;30;20115;-87
2023/07/01 03:30:52;;;;;;;10.00;9.00;;;;;;;;;;4700501;30;20053;-86
2023/07/01 03:33:20;;;;;;;10.50;9.40;;;;;;;;;;4725770;30;20065;-87
2023/07/01 03:35:48;;;;;;;10.65;9.55;;;;;;;;;;4725822;30;20098;-88
2023/07/01 03:38:15;;;;;;;9.55;8.55;;;;;;;;;;4722651;30;20065;-87
2023/07/01 03:40:47;;;;;;;10.02;9.02;;;;;;;;;;4715295;30;20087;-87
2023/07/01 03:43:15;;;;;;;10.52;9.35;;;;;;;;;;4707743;30;20410;-87
2023/07/01 03:45:43;;;;;;;9.68;8.68;;;;;;;;;;4712204;30;20497;-86
2023/07/01 03:48:10;;;;;;;9.25;8.43;;;;;;;;;;4725910;30;20550;-87
2023/07/01 03:50:39;;;;;;;9.65;8.65;;;;;;;;;;4738211;30;20130;-88
2023/07/01 03:53:06;;;;;;;11.02;9.30;;;;;;;;;;4726887;30;20056;-87
2023/07/01 03:55:34;;;;;;;9.57;8.57;;;;;;;;;;4744485;30;20052;-87
2023/07/01 03:58:02;;;;;;;10.02;9.02;;;;;;;;;;4728815;30;20535;-87
2023/07/01 04:00:31;;;;;;;9.25;8.38;;;;;;;;;;4712403;30;20737;-86
2023/07/01 04:03:05;;;;;;;10.43;9.45;;;;;;;;;;4714210;30;20053;-87
2023/07/01 04:05:34;;;;;;;9.73;8.80;;;;;;;;;;4711247;30;20068;-87
2023/07/01 04:08:05;;;;;;;9.80;8.80;;;;;;;;;;4712280;30;20045;-87
2023/07/01 04:10:39;;;;;;;8.40;7.60;;;;;;;;;;4711985;30;20144;-89
2023/07/01 04:13:12;;;;;;;10.07;9.15;;;;;;;;;;4725320;30;20076;-86
2023/07/01 04:15:40;;;;;;;9.80;8.43;;;;;;;;;;4711856;30;20053;-86
2023/07/01 04:18:08;;;;;;;10.43;8.40;;;;;;;;;;4696141;30;20073;-86
2023/07/01 04:20:40;;;;;;;11.27;10.02;;;;;;;;;;4723275;30;20048;-86
2023/07/01 04:23:07;;;;;;;8.88;7.97;;;;;;;;;;4720735;30;20482;-86
2023/07/01 04:25:35;;;;;;;9.50;8.60;;;;;;;;;;4714092;30;20064;-85
2023/07/01 04:28:04;;;;;;;9.60;8.68;;;;;;;;;;4724205;30;20048;-85
2023/07/01 04:30:31;;;;;;;10.18;9.23;;;;;;;;;;4715722;30;20169;-86
2023/07/01 04:32:59;;;;;;;10.55;9.52;;;;;;;;;;4738165;30;20413;-86
2023/07/01 04:35:26;;;;;;;11.27;9.23;;;;;;;;;;4712923;30;20057;-87
2023/07/01 04:37:54;;;;;;;10.02;8.85;;;;;;;;;;4712049;30;20052;-88
2023/07/01 04:40:22;;;;;;;10.13;9.05;;;;;;;;;;4729444;30;20135;-89
2023/07/01 04:42:52;;;;;;;10.82;9.73;;;;;;;;;;4713252;30;20071;-86
2023/07/01 04:45:29;;;;;;;9.90;9.00;;;;;;;;;;4707968;30;20053;-87
2023/07/01 04:47:59;;;;;;;11.77;9.85;;;;;;;;;;4731559;30;20057;-88
2023/07/01 04:50:34;;;;;;;9.85;8.85;;;;;;;;;;4719276;30;20107;-87
2023/07/01 04:53:02;;;;;;;9.70;8.75;;;;;;;;;;4716869;30;20521;-87
2023/07/01 04:55:31;;;;;;;8.90;8.10;;;;;;;;;;4709752;30;20061;-89
2023/07/01 04:58:09;;;;;;;8.90;8.00;;;;;;;;;;4714886;30;20068;-87
2023/07/01 05:00:37;;;;;;;9.43;8.52;;;;;;;;;;4714095;30;20485;-88
2023/07/01 05:03:09;;;;;;;9.45;8.55;;;;;;;;;;4715505;30;20049;-87
2023/07/01 05:05:37;;;;;;;10.20;8.95;;;;;;;;;;4712849;30;20053;-88
2023/07/01 05:08:10;;;;;;;10.35;9.25;;;;;;;;;;4717706;30;20580;-89
2023/07/01 05:11:00;;;;;;;10.02;9.02;;;;;;;;;;4716643;30;20049;-87
2023/07/01 05:13:50;;;;;;;9.15;8.25;;;;;;;;;;4718275;30;20053;-88
2023/07/01 05:16:17;;;;;;;9.52;8.63;;;;;;;;;;4712276;30;20049;-87
2023/07/01 05:18:45;;;;;;;9.50;8.65;;;;;;;;;;4718971;30;20052;-87
2023/07/01 05:21:12;;;;;;;8.98;8.10;;;;;;;;;;4702123;30;20049;-87
2023/07/01 05:23:40;;;;;;;8.85;7.93;;;;;;;;;;4717719;30;20056;-87
2023/07/01 05:26:07;;;;;;;8.80;7.90;;;;;;;;;;4711032;30;20089;-87
2023/07/01 05:28:37;;;;;;;10.50;9.10;;;;;;;;;;4717660;30;20137;-85
2023/07/01 05:31:08;;;;;;;8.98;8.07;;;;;;;;;;4733232;30;20842;-86
2023/07/01 05:33:35;;;;;;;10.33;9.27;;;;;;;;;;4713780;30;20061;-84
2023/07/01 05:36:03;;;;;;;11.32;10.13;;;;;;;;;;4714034;30;20387;-85
2023/07/01 05:38:30;;;;;;;10.35;9.32;;;;;;;;;;4733550;30;20552;-86
2023/07/01 05:40:58;;;;;;;9.88;8.90;;;;;;;;;;4709348;30;20117;-87
2023/07/01 05:43:25;;;;;;;10.07;9.07;;;;;;;;;;4711306;30;20056;-86
2023/07/01 05:45:53;;;;;;;9.48;8.50;;;;;;;;;;4713265;30;20049;-88
2023/07/01 05:48:21;;;;;;;10.40;9.25;;;;;;;;;;4713311;30;20509;-87
2023/07/01 05:50:48;;;;;;;8.10;7.40;;;;;;;;;;4708521;30;20077;-85
2023/07/01 05:53:16;;;;;;;8.55;7.72;;;;;;;;;;4731518;30;20056;-85
2023/07/01 05:55:43;;;;;;;9.85;8.80;;;;;;;;;;4715467;30;20088;-86
2023/07/01 05:58:11;;;;;;;10.65;9.38;;;;;;;;;;4715069;30;20049;-86
2023/07/01 06:00:39;;;;;;;10.40;9.40;;;;;;;;;;4713026;30;20057;-87
2023/07/01 06:03:08;;;;;;;8.02;7.32;;;;;;;;;;4713687;30;20140;-86
2023/07/01 06:05:35;;;;;;;8.48;7.72;;;;;;;;;;4712293;30;20533;-85
2023/07/01 06:08:05;;;;;;;8.25;7.47;;;;;;;;;;4711460;30;20115;-86
2023/07/01 06:10:38;;;;;;;7.95;7.18;;;;;;;;;;4712091;30;20064;-86
2023/07/01 06:13:05;;;;;;;7.95;7.25;;;;;;;;;;4731926;30;20072;-85
2023/07/01 06:15:33;;;;;;;8.15;6.90;;;;;;;;;;4711633;30;20063;-85
2023/07/01 06:18:01;;;;;;;7.55;6.85;;;;;;;;;;4713752;30;20073;-85
2023/07/01 06:20:28;;;;;;;6.78;6.18;;;;;;;;;;4712008;30;20044;-85
2023/07/01 06:22:56;;;;;;;7.75;7.05;;;;;;;;;;4731566;30;20065;-86
2023/07/01 06:25:23;;;;;;;7.50;6.80;;;;;;;;;;4709992;30;20080;-86
2023/07/01 06:27:51;;;;;;;8.00;7.25;;;;;;;;;;4712375;30;20126;-86
2023/07/01 06:30:18;;;;;;;7.25;6.57;;;;;;;;;;4712296;30;20068;-86
2023/07/01 06:32:46;;;;;;;7.25;6.55;;;;;;;;;;4717789;30;20531;-86
2023/07/01 06:35:13;;;;;;;6.72;6.10;;;;;;;;;;4710975;30;20053;-85
2023/07/01 06:37:41;;;;;;;6.60;6.07;;;;;;;;;;4711678;30;20068;-85
2023/07/01 06:40:09;;;;;;;6.35;5.75;;;;;;;;;;4726546;30;20064;-87
2023/07/01 06:46:37;;;;;;;5.40;4.90;;;;;;;;;;4710985;30;20043;-91
2023/07/01 06:49:05;;;;;;;5.20;4.80;;;;;;;;;;4708521;30;20080;-87
2023/07/01 06:51:35;;;;;;;4.50;3.90;;;;;;;;;;4712830;30;20061;-85
2023/07/01 06:54:27;;;;;;;5.10;4.60;;;;;;;;;;4712141;30;20531;-90
2023/07/01 06:56:56;;;;;;;5.15;4.65;;;;;;;;;;4711478;30;21103;-86
2023/07/01 06:59:23;;;;;;;5.10;4.70;;;;;;;;;;4725807;30;20140;-85
2023/07/01 07:01:50;;;;;;;4.55;4.20;;;;;;;;;;4712139;30;20135;-85
2023/07/01 07:08:20;;;;;;;;;;;;;;;;;;4707905;30;20045;-86
2023/07/01 07:10:49;;;;;;;4.45;4.07;;;;;;;;;;4713041;30;20014;-90
2023/07/01 07:14:10;;;;;;;4.30;3.90;;;;;;;;;;4710804;30;20128;-86
2023/07/01 07:16:37;;;;;;;4.80;4.40;;;;;;;;;;4713605;30;20092;-85
2023/07/01 07:19:14;;;;;;;4.20;3.80;;;;;;;;;;4705450;30;20049;-87
2023/07/01 07:21:46;;;;;;;3.53;3.20;;;;;;;;;;4712681;30;20115;-86
2023/07/01 07:24:14;;;;;;;3.65;3.35;;;;;;;;;;4711782;30;20057;-85
2023/07/01 07:26:58;;;;;;;3.67;3.38;;;;;;;;;;4715146;30;20065;-91
2023/07/01 07:29:52;;;;;;;3.38;3.08;;;;;;;;;;4718168;30;20608;-91
2023/07/01 07:32:49;;;;;;;3.00;2.80;;;;;;;;;;4716302;30;20041;-85
2023/07/01 07:35:19;;;;;;;3.17;2.88;;;;;;;;;;4717978;30;20547;-86
2023/07/01 07:37:49;;;;;;;3.28;2.97;;;;;;;;;;4716363;30;20061;-85
2023/07/01 07:40:16;;;;;;;4.35;3.03;;;;;;;;;;4720947;30;20413;-86
2023/07/01 07:43:10;;;;;;;3.53;3.22;;;;;;;;;;4723810;30;20140;-86
2023/07/01 07:45:45;;;;;;;2.90;2.70;;;;;;;;;;4732861;30;20063;-79
2023/07/01 07:48:13;;;;;;;2.92;2.70;;;;;;;;;;4733472;30;20079;-79
2023/07/01 07:50:40;;;;;;;4.20;3.10;;;;;;;;;;4730196;30;20049;-79
2023/07/01 07:53:08;;;;;;;4.38;2.92;;;;;;;;;;4716714;30;20061;-79
2023/07/01 07:55:36;;;;;;;3.05;2.85;;;;;;;;;;4715259;30;20485;-78
2023/07/01 07:58:03;;;;;;;4.47;4.07;;;;;;;;;;4713331;30;20254;-79
2023/07/01 08:00:31;;;;;;;4.00;3.60;;;;;;;;;;4708101;30;20053;-81
2023/07/01 08:02:59;;;;;;;3.85;3.55;;;;;;;;;;4708209;30;20091;-79
2023/07/01 08:05:27;;;;;;;5.20;4.70;;;;;;;;;;4705867;30;20067;-78
2023/07/01 08:07:55;;;;;;;4.32;4.03;;;;;;;;;;4702990;30;20057;-78
2023/07/01 08:10:23;;;;;;;3.90;3.60;;;;;;;;;;4715228;30;20060;-78
2023/07/01 08:12:50;;;;;;;4.72;4.13;;;;;;;;;;4704761;30;20053;-78
2023/07/01 08:15:17;;;;;;;5.15;4.57;;;;;;;;;;4705000;30;20048;-78
2023/07/01 08:17:45;;;;;;;4.50;4.10;;;;;;;;;;4705671;30;20395;-79
2023/07/01 08:20:13;;;;;;;4.68;4.28;;;;;;;;;;4720280;30;20065;-77
2023/07/01 08:22:42;;;;;;;4.20;3.80;;;;;;;;;;4717322;30;20061;-78
2023/07/01 08:25:10;;;;;;;4.10;3.80;;;;;;;;;;4734931;24;20405;-76
2023/07/01 08:27:38;;;;;;;5.10;4.60;;;;;;;;;;4726274;30;20071;-76
2023/07/01 08:30:06;;;;;;;3.65;3.45;;;;;;;;;;4727769;30;20060;-76
2023/07/01 08:32:33;;;;;;;4.43;4.05;;;;;;;;;;4705714;30;20045;-77
2023/07/01 08:35:01;;;;;;;4.35;3.95;;;;;;;;;;4703554;30;20397;-76
2023/07/01 08:37:29;;;;;;;4.20;3.90;;;;;;;;;;4704790;30;20106;-76
2023/07/01 08:39:57;;;;;;;5.13;4.40;;;;;;;;;;4711405;30;20061;-75
2023/07/01 08:42:27;;;;;;;4.18;3.88;;;;;;;;;;4712437;30;20135;-75
2023/07/01 08:44:56;;;;;;;5.47;3.97;;;;;;;;;;4707681;30;20065;-76
2023/07/01 08:47:25;;;;;;;4.82;4.40;;;;;;;;;;4715458;30;20053;-76
2023/07/01 08:49:54;;;;;;;4.38;3.70;;;;;;;;;;4726149;30;20061;-76
2023/07/01 08:52:22;;;;;;;3.50;3.20;;;;;;;;;;4718521;30;20045;-76
2023/07/01 08:54:50;;;;;;;3.60;3.30;;;;;;;;;;4712148;30;20521;-76
2023/07/01 08:57:19;;;;;;;4.78;4.38;;;;;;;;;;4725830;30;20052;-76
2023/07/01 08:59:47;;;;;;;3.83;3.53;;;;;;;;;;4713861;30;20057;-77
2023/07/01 09:02:15;;;;;;;4.05;3.65;;;;;;;;;;4718313;30;20493;-76
2023/07/01 09:04:43;;;;;;;5.78;3.45;;;;;;;;;;4719779;30;20053;-76
2023/07/01 09:07:11;;;;;;;3.13;2.92;;;;;;;;;;4711585;30;20551;-76
2023/07/01 09:09:39;;;;;;;3.50;3.00;;;;;;;;;;4710982;30;20045;-77
2023/07/01 09:12:07;;;;;;;3.22;2.92;;;;;;;;;;4711487;30;20061;-77
2023/07/01 09:14:53;;;;;;;3.10;2.90;;;;;;;;;;4709236;30;20060;-77
2023/07/01 09:17:30;;;;;;;4.57;2.60;;;;;;;;;;4711403;30;20053;-76
2023/07/01 09:19:59;;;;;;;2.65;2.45;;;;;;;;;;4708861;30;20053;-77
2023/07/01 09:22:28;;;;;;;2.15;1.98;;;;;;;;;;4711217;30;20093;-77
2023/07/01 09:24:57;;;;;;;2.45;2.35;;;;;;;;;;4708610;30;20498;-77
2023/07/01 09:27:47;;;;;;;2.83;2.63;;;;;;;;;;4703487;30;20053;-77
2023/07/01 09:30:20;;;;;;;2.97;2.78;;;;;;;;;;4713473;30;20053;-77
2023/07/01 09:32:48;;;;;;;2.60;2.40;;;;;;;;;;4698933;30;20191;-77
2023/07/01 09:35:16;;;;;;;3.13;2.40;;;;;;;;;;4701766;30;20049;-77
2023/07/01 09:37:44;;;;;;;2.25;2.10;;;;;;;;;;4705008;30;20084;-77
2023/07/01 09:40:24;;;;;;;2.65;2.20;;;;;;;;;;4710848;30;20142;-76
2023/07/01 09:42:56;;;;;;;2.58;2.38;;;;;;;;;;4710999;30;20545;-77
2023/07/01 09:45:23;;;;;;;2.00;1.90;;;;;;;;;;4706902;30;20053;-77
2023/07/01 09:47:54;;;;;;;2.65;2.45;;;;;;;;;;4703362;30;20115;-76
2023/07/01 09:50:33;;;;;;;2.33;2.13;;;;;;;;;;4711100;30;20057;-77
2023/07/01 09:53:00;;;;;;;2.80;2.30;;;;;;;;;;4708795;30;20052;-76
2023/07/01 09:55:28;;;;;;;1.90;1.80;;;;;;;;;;4720442;30;20049;-77
2023/07/01 09:57:56;;;;;;;2.28;1.90;;;;;;;;;;4712214;30;20110;-76
2023/07/01 10:00:31;;;;;;;2.10;2.00;;;;;;;;;;4720854;30;20064;-76
2023/07/01 10:03:03;;;;;;;1.75;1.65;;;;;;;;;;4709118;30;20061;-77
2023/07/01 10:05:32;;;;;;;1.92;1.83;;;;;;;;;;4711399;30;20424;-78
2023/07/01 10:07:59;;;;;;;2.63;1.67;;;;;;;;;;4710794;30;20084;-77
2023/07/01 10:10:28;;;;;;;1.83;1.70;;;;;;;;;;4710930;30;20136;-77
2023/07/01 10:13:01;;;;;;;1.70;1.60;;;;;;;;;;4703329;30;20440;-77
2023/07/01 10:15:32;;;;;;;1.63;1.45;;;;;;;;;;4722856;30;20434;-77
2023/07/01 10:18:00;;;;;;;1.50;1.40;;;;;;;;;;4704181;30;20503;-77
2023/07/01 10:20:28;;;;;;;1.27;1.27;;;;;;;;;;4710450;30;20059;-77
2023/07/01 10:22:57;;;;;;;1.88;1.50;;;;;;;;;;4707949;30;20057;-77
2023/07/01 10:25:35;;;;;;;1.40;1.30;;;;;;;;;;4712669;30;20072;-79
2023/07/01 10:28:06;;;;;;;1.20;1.20;;;;;;;;;;4709471;30;20053;-78
2023/07/01 10:30:43;;;;;;;1.20;1.10;;;;;;;;;;4701366;30;20053;-78
2023/07/01 10:33:39;;;;;;;1.50;1.40;;;;;;;;;;4699196;30;20056;-79
2023/07/01 10:36:07;;;;;;;1.50;1.40;;;;;;;;;;4703401;30;20127;-77
2023/07/01 10:38:35;;;;;;;2.83;1.83;;;;;;;;;;4710220;30;20053;-77
2023/07/01 10:41:03;;;;;;;1.30;1.20;;;;;;;;;;4709729;30;20054;-78
2023/07/01 10:43:36;;;;;;;2.15;1.60;;;;;;;;;;4704309;30;20054;-78
2023/07/01 10:46:05;;;;;;;2.05;1.20;;;;;;;;;;4705326;30;20508;-78
2023/07/01 10:48:33;;;;;;;1.50;1.40;;;;;;;;;;4709615;30;20053;-79
2023/07/01 10:51:04;;;;;;;1.65;1.40;;;;;;;;;;4714705;30;20053;-78
2023/07/01 10:53:53;;;;;;;1.50;1.40;;;;;;;;;;4714003;30;20056;-78
2023/07/01 10:56:21;;;;;;;1.48;1.38;;;;;;;;;;4733838;30;20053;-78
2023/07/01 10:59:30;;;;;;;1.42;1.40;;;;;;;;;;4722658;30;20065;-78
2023/07/01 11:02:05;;;;;;;2.30;2.10;;;;;;;;;;4687431;30;20061;-78
2023/07/01 11:05:03;;;;;;;1.67;1.58;;;;;;;;;;4683846;30;20049;-78
2023/07/01 11:07:31;;;;;;;2.00;1.65;;;;;;;;;;4703297;30;20686;-78
2023/07/01 11:09:58;;;;;;;1.70;1.60;;;;;;;;;;4708403;30;20057;-78
2023/07/01 11:12:27;;;;;;;1.42;1.33;;;;;;;;;;4711251;30;20060;-78
2023/07/01 11:14:55;;;;;;;1.73;1.50;;;;;;;;;;4705448;30;20111;-78
2023/07/01 11:17:23;;;;;;;1.80;1.70;;;;;;;;;;4704975;30;20083;-78
2023/07/01 11:19:55;;;;;;;1.70;1.60;;;;;;;;;;4709731;30;20065;-79
2023/07/01 11:22:22;;;;;;;1.20;1.20;;;;;;;;;;4704392;30;20057;-78
2023/07/01 11:24:50;;;;;;;1.60;1.50;;;;;;;;;;4705684;30;20064;-79
2023/07/01 11:27:18;;;;;;;3.88;1.50;;;;;;;;;;4703432;30;20045;-79
2023/07/01 11:29:47;;;;;;;1.60;1.50;;;;;;;;;;4702577;30;20149;-78
2023/07/01 11:32:15;;;;;;;1.70;1.60;;;;;;;;;;4696757;30;20343;-78
2023/07/01 11:34:45;;;;;;;2.00;1.90;;;;;;;;;;4700429;30;20057;-78
2023/07/01 11:37:23;;;;;;;1.63;1.53;;;;;;;;;;4714941;30;20065;-79
2023/07/01 11:39:52;;;;;;;1.65;1.55;;;;;;;;;;4695848;30;20818;-78
2023/07/01 11:42:21;;;;;;;1.60;1.50;;;;;;;;;;4695872;30;20522;-78
2023/07/01 11:44:48;;;;;;;1.60;1.50;;;;;;;;;;4697155;30;20068;-79
2023/07/01 11:47:16;;;;;;;1.35;1.35;;;;;;;;;;4710465;30;20092;-79
2023/07/01 11:49:44;;;;;;;2.10;1.80;;;;;;;;;;4693965;30;20057;-78
2023/07/01 11:52:21;;;;;;;1.83;1.73;;;;;;;;;;4700395;30;20235;-78
2023/07/01 11:54:51;;;;;;;1.70;1.60;;;;;;;;;;4703980;30;20049;-79
2023/07/01 11:57:20;;;;;;;1.60;1.50;;;;;;;;;;4705158;30;20125;-78
2023/07/01 11:59:49;;;;;;;1.52;1.40;;;;;;;;;;4702792;30;20084;-78
2023/07/01 12:02:25;;;;;;;1.80;1.65;;;;;;;;;;4704245;30;20072;-79
2023/07/01 12:04:53;;;;;;;1.63;1.52;;;;;;;;;;4708894;30;20586;-78
2023/07/01 12:07:20;;;;;;;2.30;1.85;;;;;;;;;;4710172;30;20065;-78
2023/07/01 12:09:48;;;;;;;2.00;1.80;;;;;;;;;;4700865;30;20476;-78
2023/07/01 12:12:16;;;;;;;2.10;1.50;;;;;;;;;;4703757;30;20124;-77
2023/07/01 12:14:45;;;;;;;2.30;2.20;;;;;;;;;;4701665;30;20061;-78
2023/07/01 12:17:28;;;;;;;2.17;1.98;;;;;;;;;;4705148;30;20540;-77
2023/07/01 12:19:58;;;;;;;2.70;2.50;;;;;;;;;;4703748;30;20191;-77
2023/07/01 12:22:26;;;;;;;2.22;2.03;;;;;;;;;;4712320;30;20083;-77
2023/07/01 12:24:57;;;;;;;2.03;1.92;;;;;;;;;;4715367;30;20413;-77
2023/07/01 12:27:29;;;;;;;2.65;2.42;;;;;;;;;;4699456;30;20383;-77
2023/07/01 12:29:57;;;;;;;2.67;2.47;;;;;;;;;;4702268;30;20471;-79
2023/07/01 12:32:25;;;;;;;2.60;2.40;;;;;;;;;;4713276;30;20045;-79
2023/07/01 12:34:55;;;;;;;2.33;2.20;;;;;;;;;;4712486;30;20057;-77
2023/07/01 12:37:23;;;;;;;1.92;1.83;;;;;;;;;;4711451;30;20065;-76
2023/07/01 12:39:53;;;;;;;2.05;1.90;;;;;;;;;;4710893;30;20471;-77
2023/07/01 12:42:22;;;;;;;2.40;1.95;;;;;;;;;;4702966;30;20155;-78
2023/07/01 12:44:49;;;;;;;1.85;1.75;;;;;;;;;;4704433;30;20078;-79
2023/07/01 12:47:19;;;;;;;2.15;1.88;;;;;;;;;;4697842;30;20056;-78
2023/07/01 12:49:47;;;;;;;1.52;1.42;;;;;;;;;;4711485;30;20094;-78
2023/07/01 12:52:15;;;;;;;1.60;1.50;;;;;;;;;;4708639;30;20045;-79
2023/07/01 12:54:42;;;;;;;1.77;1.67;;;;;;;;;;4703428;30;20054;-79
2023/07/01 12:57:10;;;;;;;1.80;1.70;;;;;;;;;;4701707;30;20060;-79
2023/07/01 12:59:37;;;;;;;1.67;1.58;;;;;;;;;;4713368;30;20095;-78
2023/07/01 13:02:05;;;;;;;2.05;1.80;;;;;;;;;;4717393;30;20088;-79
2023/07/01 13:04:33;;;;;;;1.70;1.60;;;;;;;;;;4714068;30;20057;-78
2023/07/01 13:07:01;;;;;;;1.55;1.45;;;;;;;;;;4720988;30;20060;-78
2023/07/01 13:09:41;;;;;;;1.90;1.80;;;;;;;;;;4720019;30;20069;-78
2023/07/01 13:12:08;;;;;;;1.50;1.40;;;;;;;;;;4715667;30;20066;-77
2023/07/01 13:14:36;;;;;;;1.85;1.73;;;;;;;;;;4710579;30;20060;-78
2023/07/01 13:17:03;;;;;;;2.10;1.70;;;;;;;;;;4699532;30;20064;-77
2023/07/01 13:19:31;;;;;;;1.80;1.75;;;;;;;;;;4702450;30;20057;-78
2023/07/01 13:21:59;;;;;;;1.88;1.77;;;;;;;;;;4696707;30;20061;-78
2023/07/01 13:24:27;;;;;;;1.70;1.60;;;;;;;;;;4708608;30;20060;-79
2023/07/01 13:26:56;;;;;;;1.55;1.45;;;;;;;;;;4694880;30;20062;-78
2023/07/01 13:29:24;;;;;;;1.70;1.60;;;;;;;;;;4693149;30;20068;-78
2023/07/01 13:31:53;;;;;;;1.88;1.70;;;;;;;;;;4693394;30;20488;-78
2023/07/01 13:34:22;;;;;;;1.25;1.25;;;;;;;;;;4698109;30;20070;-78
2023/07/01 13:36:52;;;;;;;1.70;1.60;;;;;;;;;;4704785;30;20084;-79
2023/07/01 13:39:24;;;;;;;1.48;1.38;;;;;;;;;;4701197;30;20062;-78
2023/07/01 13:41:51;;;;;;;2.55;1.80;;;;;;;;;;4695795;30;20091;-77
2023/07/01 13:44:20;;;;;;;2.40;2.30;;;;;;;;;;4694811;30;20080;-78
2023/07/01 13:46:48;;;;;;;1.85;1.75;;;;;;;;;;4696877;30;20081;-78
2023/07/01 13:49:19;;;;;;;4.57;1.77;;;;;;;;;;4691411;30;20057;-78
2023/07/01 13:51:46;;;;;;;2.33;2.13;;;;;;;;;;4692674;30;20115;-78
2023/07/01 13:54:15;;;;;;;2.03;1.92;;;;;;;;;;4694758;30;20065;-78
2023/07/01 13:56:43;;;;;;;1.60;1.50;;;;;;;;;;4698179;30;20514;-78
2023/07/01 13:59:14;;;;;;;2.22;2.03;;;;;;;;;;4698247;30;20132;-78
2023/07/01 14:02:02;;;;;;;2.50;2.30;;;;;;;;;;4695533;30;20088;-77
2023/07/01 14:04:31;;;;;;;2.08;1.98;;;;;;;;;;4702335;30;20061;-77
2023/07/01 14:07:01;;;;;;;2.17;1.95;;;;;;;;;;4699112;30;20057;-77
2023/07/01 14:09:30;;;;;;;1.85;1.75;;;;;;;;;;4698282;30;20125;-77
2023/07/01 14:11:58;;;;;;;2.22;2.10;;;;;;;;;;4703889;30;20440;-78
2023/07/01 14:14:26;;;;;;;1.92;1.83;;;;;;;;;;4698845;30;20303;-78
2023/07/01 14:16:54;;;;;;;2.05;1.70;;;;;;;;;;4697918;30;20332;-78
2023/07/01 14:19:21;;;;;;;2.13;2.00;;;;;;;;;;4693081;30;20520;-78
2023/07/01 14:21:50;;;;;;;1.70;1.60;;;;;;;;;;4701731;30;21365;-78
2023/07/01 14:24:27;;;;;;;1.63;1.60;;;;;;;;;;4723712;24;20027;-85
2023/07/01 14:26:56;;;;;;;1.73;1.63;;;;;;;;;;4735397;30;20474;-84
2023/07/01 14:29:23;;;;;;;2.40;2.20;;;;;;;;;;4745016;30;20070;-85
2023/07/01 14:31:55;;;;;;;2.05;1.95;;;;;;;;;;4742383;30;20048;-88
2023/07/01 14:34:56;;;;;;;2.50;1.63;;;;;;;;;;4732338;30;20114;-86
2023/07/01 14:37:24;;;;;;;1.90;1.80;;;;;;;;;;4729464;30;20478;-85
2023/07/01 14:39:53;;;;;;;1.80;1.70;;;;;;;;;;4729548;30;20644;-84
2023/07/01 14:42:25;;;;;;;1.50;1.40;;;;;;;;;;4725628;30;20443;-86
2023/07/01 14:45:11;;;;;;;1.77;1.67;;;;;;;;;;4751623;30;20116;-88
2023/07/01 14:47:47;;;;;;;1.75;1.65;;;;;;;;;;4722097;30;20394;-88
2023/07/01 14:50:37;;;;;;;1.73;1.60;;;;;;;;;;4727414;30;20774;-87
2023/07/01 14:56:35;;;;;;;1.40;1.40;;;;;;;;;;4724833;30;20061;-86
2023/07/01 14:59:03;;;;;;;1.60;1.50;;;;;;;;;;4726677;30;20060;-86
2023/07/01 15:01:31;;;;;;;1.50;1.40;;;;;;;;;;4726715;30;20053;-86
2023/07/01 15:03:59;;;;;;;1.60;1.50;;;;;;;;;;4724351;30;20037;-89
2023/07/01 15:06:32;;;;;;;3.40;1.80;;;;;;;;;;4727036;30;20133;-87
2023/07/01 15:09:02;;;;;;;1.60;1.50;;;;;;;;;;4726934;30;20098;-86
2023/07/01 15:11:55;;;;;;;1.70;1.60;;;;;;;;;;4732479;30;20107;-91